Photometre #642[NE_1.2] Dushanbe AOT

File : 20220923_642.hum

23/09/2022,01:58:49,TEMP=18.1,BA=5.20,STAT.A=0.0,ExtBa=13.57
23/09/2022,02:02:10,TEMP=18.4,BA=5.08,STAT.A=0.0,ExtBa=13.56
23/09/2022,02:05:58,TEMP=18.6,BA=5.08,STAT.A=0.0,ExtBa=13.56
23/09/2022,02:10:31,TEMP=18.9,BA=5.28,STAT.A=0.0,ExtBa=13.56
23/09/2022,02:15:59,TEMP=19.2,BA=5.28,STAT.A=0.0,ExtBa=13.56
23/09/2022,02:22:45,TEMP=19.7,BA=5.32,STAT.A=0.0,ExtBa=13.56
23/09/2022,02:31:17,TEMP=20.3,BA=5.36,STAT.B=0.5,ExtBa=13.56
23/09/2022,02:40:26,TEMP=20.8,BA=5.24,STAT.A=0.0,ExtBa=13.56
23/09/2022,02:42:18,TEMP=21.0,BA=5.24,STAT.A=0.0,ExtBa=13.56
23/09/2022,02:45:04,TEMP=20.9,BA=5.24,STAT.A=0.0,ExtBa=13.56
23/09/2022,02:50:53,TEMP=20.7,BA=5.48,STAT.A=0.5,ExtBa=13.56
23/09/2022,02:57:36,TEMP=20.9,BA=5.48,STAT.C=0.5,ExtBa=13.56
23/09/2022,03:12:37,TEMP=22.4,BA=5.28,STAT.A=0.5,ExtBa=13.57
23/09/2022,03:14:29,TEMP=22.7,BA=5.28,STAT.A=0.5,ExtBa=13.58
23/09/2022,03:25:23,TEMP=23.4,BA=5.52,STAT.A=0.5,ExtBa=13.66
23/09/2022,03:38:43,TEMP=25.3,BA=5.52,STAT.A=0.5,ExtBa=13.72
23/09/2022,03:55:29,TEMP=26.0,BA=5.52,STAT.B=0.5,ExtBa=13.99
23/09/2022,04:04:33,TEMP=26.7,BA=5.32,STAT.D=0.5,ExtBa=13.71
23/09/2022,04:17:41,TEMP=27.5,BA=5.52,STAT.F,ExtBa=14.01
23/09/2022,04:32:39,TEMP=28.2,BA=5.32,STAT.D=1.0,ExtBa=13.82
23/09/2022,04:47:39,TEMP=28.9,BA=5.56,STAT.D=1.0,ExtBa=14.21
23/09/2022,05:02:40,TEMP=29.9,BA=5.52,STAT.D=1.0,ExtBa=14.29
23/09/2022,05:17:40,TEMP=30.7,BA=5.56,STAT.F,ExtBa=14.30
23/09/2022,05:32:45,TEMP=31.5,BA=5.32,STAT.D=1.0,ExtBa=13.91
23/09/2022,05:47:40,TEMP=32.2,BA=5.52,STAT.D=1.0,ExtBa=14.37
23/09/2022,06:02:40,TEMP=33.1,BA=5.52,STAT.D=1.0,ExtBa=14.38
23/09/2022,06:17:42,TEMP=34.1,BA=5.52,STAT.F,ExtBa=14.38
23/09/2022,06:33:40,TEMP=34.4,BA=5.32,STAT.D=1.0,ExtBa=14.01
23/09/2022,06:47:40,TEMP=34.3,BA=5.48,STAT.D=1.5,ExtBa=14.45
23/09/2022,07:02:40,TEMP=34.7,BA=5.48,STAT.D=1.5,ExtBa=14.47
23/09/2022,07:17:42,TEMP=35.0,BA=5.48,STAT.F,ExtBa=14.45
23/09/2022,07:32:40,TEMP=35.5,BA=5.48,STAT.D=1.5,ExtBa=14.45
23/09/2022,07:47:40,TEMP=35.8,BA=5.48,STAT.D=1.5,ExtBa=14.45
23/09/2022,08:02:40,TEMP=36.0,BA=5.48,STAT.D=1.5,ExtBa=14.44
23/09/2022,08:17:42,TEMP=36.2,BA=5.48,STAT.F,ExtBa=14.41
23/09/2022,08:32:39,TEMP=35.8,BA=5.32,STAT.D=1.5,ExtBa=14.11
23/09/2022,08:47:40,TEMP=36.2,BA=5.44,STAT.D=1.5,ExtBa=14.37
23/09/2022,09:02:40,TEMP=36.5,BA=5.44,STAT.D=1.5,ExtBa=14.36
23/09/2022,09:17:41,TEMP=36.6,BA=5.44,STAT.F,ExtBa=14.31
23/09/2022,09:32:39,STAT.p
23/09/2022,09:47:39,STAT.p
23/09/2022,10:02:39,TEMP=36.6,BA=5.44,STAT.D=1.5,ExtBa=14.15
23/09/2022,10:17:41,TEMP=36.6,BA=5.44,STAT.F,ExtBa=14.09
23/09/2022,10:32:40,TEMP=36.5,BA=5.32,STAT.D=1.5,ExtBa=13.74
23/09/2022,10:39:52,TEMP=36.0,BA=5.32,STAT.B=1.5,ExtBa=13.88
23/09/2022,10:56:38,TEMP=35.9,BA=5.40,STAT.A=1.5,ExtBa=13.71
23/09/2022,11:09:57,TEMP=35.9,BA=5.40,STAT.A=1.5,ExtBa=13.75
23/09/2022,11:20:51,TEMP=35.2,BA=5.44,STAT.A=1.5,ExtBa=13.66
23/09/2022,11:31:55,TEMP=35.0,BA=5.32,STAT.A=1.5,ExtBa=13.57
23/09/2022,11:37:44,TEMP=34.6,BA=5.32,STAT.C=1.5,ExtBa=13.57
23/09/2022,11:53:18,TEMP=33.8,BA=5.28,STAT.A=1.0,ExtBa=13.55
23/09/2022,11:55:11,TEMP=33.8,BA=5.28,STAT.A=1.0,ExtBa=13.55
23/09/2022,11:57:14,TEMP=33.7,BA=5.28,STAT.A=1.0,ExtBa=13.55
23/09/2022,11:59:58,TEMP=33.4,BA=5.28,STAT.A=1.0,ExtBa=13.56
23/09/2022,12:04:02,TEMP=33.1,BA=5.32,STAT.B=1.0,ExtBa=13.56
23/09/2022,12:13:40,TEMP=32.7,BA=5.28,STAT.A=1.0,ExtBa=13.56
23/09/2022,12:19:19,TEMP=32.3,BA=5.28,STAT.A=1.0,ExtBa=13.56
23/09/2022,12:24:49,TEMP=32.1,BA=5.28,STAT.A=1.0,ExtBa=13.56
23/09/2022,12:29:22,TEMP=31.9,BA=5.28,STAT.A=1.0,ExtBa=13.56
23/09/2022,12:33:12,TEMP=31.8,BA=5.28,STAT.A=1.0,ExtBa=13.56
23/09/2022,12:36:29,TEMP=31.6,BA=5.28,STAT.A=1.0,ExtBa=13.56